createdAt,value
2023-01-29T00:00:10.050Z,83.68
2023-01-29T00:02:42.541Z,82.92
2023-01-29T00:05:26.643Z,83.61
2023-01-29T00:07:56.016Z,83.52
2023-01-29T00:10:25.240Z,82.04
2023-01-29T00:12:53.882Z,82.05
2023-01-29T00:15:22.372Z,83.01
2023-01-29T00:17:52.289Z,82.53
2023-01-29T00:20:20.806Z,83.09
2023-01-29T00:22:49.511Z,81.92
2023-01-29T00:25:18.260Z,82.92
2023-01-29T00:27:46.782Z,82.89
2023-01-29T00:30:19.313Z,82.16
2023-01-29T00:32:48.136Z,82.68
2023-01-29T00:35:18.240Z,83.37
2023-01-29T00:37:46.887Z,83.83
2023-01-29T00:40:15.853Z,82.99
2023-01-29T00:43:03.249Z,82.91
2023-01-29T00:45:31.745Z,83.06
2023-01-29T00:48:00.293Z,82.74
2023-01-29T00:50:30.490Z,82.89
2023-01-29T00:52:59.603Z,83.41
2023-01-29T00:55:28.096Z,83.16
2023-01-29T00:57:56.634Z,83.73
2023-01-29T01:00:25.797Z,83.11
2023-01-29T01:03:08.810Z,82.33
2023-01-29T01:05:39.097Z,82.81
2023-01-29T01:08:28.553Z,83.21
2023-01-29T01:11:00.761Z,83.33
2023-01-29T01:13:29.441Z,83.88
2023-01-29T01:15:58.864Z,82.27
2023-01-29T01:18:30.671Z,81.91
2023-01-29T01:21:00.582Z,81.11
2023-01-29T01:23:29.256Z,81.36
2023-01-29T01:25:57.774Z,81.41
2023-01-29T01:28:26.771Z,80.81
2023-01-29T01:30:55.411Z,82.36
2023-01-29T01:33:24.492Z,82.19
2023-01-29T01:35:53.074Z,81.20
2023-01-29T01:38:24.315Z,81.36
2023-01-29T01:40:52.803Z,80.78
2023-01-29T01:43:21.885Z,80.81
2023-01-29T01:45:50.483Z,81.11
2023-01-29T01:48:22.938Z,80.10
2023-01-29T01:50:54.853Z,81.26
2023-01-29T01:53:30.550Z,80.46
2023-01-29T01:56:02.512Z,80.42
2023-01-29T01:58:34.480Z,80.35
2023-01-29T02:01:05.582Z,80.92
2023-01-29T02:03:56.065Z,80.71
2023-01-29T02:06:42.042Z,80.80
2023-01-29T02:09:35.560Z,80.16
2023-01-29T02:12:06.324Z,80.09
2023-01-29T02:14:38.921Z,80.31
2023-01-29T02:17:11.885Z,80.54
2023-01-29T02:19:48.690Z,80.54
2023-01-29T02:22:47.228Z,80.34
2023-01-29T02:25:40.567Z,80.71
2023-01-29T02:28:37.253Z,80.96
2023-01-29T02:31:13.640Z,80.64
2023-01-29T02:33:56.213Z,80.45
2023-01-29T02:36:32.887Z,80.18
2023-01-29T02:39:05.992Z,80.79
2023-01-29T02:41:42.585Z,80.11
2023-01-29T02:44:17.816Z,80.00
2023-01-29T02:46:52.141Z,80.71
2023-01-29T02:49:28.592Z,79.73
2023-01-29T02:52:03.273Z,80.79
2023-01-29T02:54:40.857Z,79.69
2023-01-29T02:57:17.463Z,79.73
2023-01-29T02:59:53.617Z,79.58
2023-01-29T03:02:30.125Z,80.01
2023-01-29T03:05:02.728Z,80.27
2023-01-29T03:07:44.711Z,80.15
2023-01-29T03:10:24.175Z,80.01
2023-01-29T03:12:56.751Z,80.12
2023-01-29T03:15:32.073Z,80.34
2023-01-29T03:18:19.858Z,80.31
2023-01-29T03:20:52.622Z,80.65
2023-01-29T03:23:47.901Z,80.58
2023-01-29T03:26:37.019Z,80.19
2023-01-29T03:29:25.197Z,79.42
2023-01-29T03:32:07.338Z,77.90
2023-01-29T03:34:43.612Z,78.43
2023-01-29T03:37:18.744Z,79.49
2023-01-29T03:39:47.259Z,79.46
2023-01-29T03:42:22.686Z,79.15
2023-01-29T03:45:00.394Z,79.87
2023-01-29T03:47:44.247Z,78.76
2023-01-29T03:50:22.739Z,79.91
2023-01-29T03:52:57.968Z,79.56
2023-01-29T03:55:36.502Z,78.19
2023-01-29T03:58:10.689Z,77.88
2023-01-29T04:00:43.780Z,78.44
2023-01-29T04:03:20.868Z,79.11
2023-01-29T04:05:58.309Z,77.99
2023-01-29T04:08:35.724Z,78.98
2023-01-29T04:11:11.326Z,78.46
2023-01-29T04:13:40.497Z,78.69
2023-01-29T04:16:15.738Z,78.17
2023-01-29T04:19:15.357Z,78.98
2023-01-29T04:21:47.287Z,79.13
2023-01-29T04:24:16.783Z,79.23
2023-01-29T04:26:56.652Z,79.48
2023-01-29T04:29:40.233Z,79.26
2023-01-29T04:32:19.876Z,79.21
2023-01-29T04:35:01.790Z,79.57
2023-01-29T04:37:38.700Z,79.38
2023-01-29T04:40:19.557Z,77.72
2023-01-29T04:42:55.045Z,78.96
2023-01-29T04:45:31.846Z,78.91
2023-01-29T04:48:15.853Z,78.17
2023-01-29T04:50:53.664Z,79.32
2023-01-29T04:53:29.919Z,77.89
2023-01-29T04:56:07.250Z,77.63
2023-01-29T04:58:40.787Z,77.32
2023-01-29T05:01:14.005Z,78.00
2023-01-29T05:03:46.343Z,77.26
2023-01-29T05:06:18.053Z,78.46
2023-01-29T05:08:48.830Z,78.34
2023-01-29T05:11:18.041Z,78.28
2023-01-29T05:13:49.593Z,77.91
2023-01-29T05:16:21.736Z,77.65
2023-01-29T05:18:50.572Z,78.57
2023-01-29T05:21:23.073Z,77.66
2023-01-29T05:24:13.449Z,77.65
2023-01-29T05:27:00.784Z,77.92
2023-01-29T05:29:29.330Z,77.79
2023-01-29T05:31:57.911Z,78.11
2023-01-29T05:34:26.569Z,78.60
2023-01-29T05:36:56.536Z,77.56
2023-01-29T05:39:25.221Z,77.65
2023-01-29T05:41:53.715Z,77.61
2023-01-29T05:44:22.140Z,77.23
2023-01-29T05:46:51.184Z,77.42
2023-01-29T05:49:20.500Z,77.61
2023-01-29T05:51:48.927Z,76.93
2023-01-29T05:54:18.743Z,77.28
2023-01-29T05:56:47.135Z,77.42
2023-01-29T05:59:16.116Z,78.72
2023-01-29T06:01:44.556Z,77.93
2023-01-29T06:04:13.048Z,78.57
2023-01-29T06:06:41.574Z,78.77
2023-01-29T06:09:11.661Z,77.64
2023-01-29T06:11:41.592Z,77.66
2023-01-29T06:14:10.104Z,77.83
2023-01-29T06:16:38.519Z,78.34
2023-01-29T06:19:07.094Z,78.01
2023-01-29T06:21:35.590Z,77.36
2023-01-29T06:24:04.110Z,78.55
2023-01-29T06:26:32.550Z,78.01
2023-01-29T06:29:02.354Z,78.07
2023-01-29T06:31:38.786Z,77.67
2023-01-29T06:34:07.853Z,77.90
2023-01-29T06:36:36.355Z,78.65
2023-01-29T06:39:05.443Z,78.65
2023-01-29T06:41:34.118Z,78.75
2023-01-29T06:44:04.104Z,78.84
2023-01-29T06:46:32.641Z,79.80
2023-01-29T06:49:01.433Z,79.90
2023-01-29T06:51:30.019Z,79.33
2023-01-29T06:53:58.854Z,79.35
2023-01-29T06:56:27.369Z,79.41
2023-01-29T06:58:55.956Z,79.36
2023-01-29T07:01:35.605Z,79.02
2023-01-29T07:04:05.303Z,79.59
2023-01-29T07:06:34.915Z,79.11
2023-01-29T07:09:04.081Z,78.54
2023-01-29T07:11:32.898Z,79.22
2023-01-29T07:14:01.373Z,79.65
2023-01-29T07:16:31.289Z,79.31
2023-01-29T07:18:59.883Z,79.28
2023-01-29T07:21:28.377Z,79.17
2023-01-29T07:23:56.917Z,79.28
2023-01-29T07:26:25.583Z,79.31
2023-01-29T07:28:54.073Z,78.37
2023-01-29T07:31:22.917Z,78.51
2023-01-29T07:33:52.854Z,79.75
2023-01-29T07:36:21.332Z,79.48
2023-01-29T07:38:51.071Z,79.43
2023-01-29T07:41:19.615Z,79.20
2023-01-29T07:43:49.255Z,78.77
2023-01-29T07:46:17.844Z,78.84
2023-01-29T07:48:46.309Z,78.59
2023-01-29T07:51:18.095Z,77.89
2023-01-29T07:53:47.111Z,78.54
2023-01-29T07:56:15.668Z,78.15
2023-01-29T07:58:44.151Z,78.41
2023-01-29T08:01:12.687Z,77.95
2023-01-29T08:03:41.344Z,78.09
2023-01-29T08:06:09.890Z,77.22
2023-01-29T08:08:39.725Z,78.32
2023-01-29T08:11:08.238Z,78.06
2023-01-29T08:13:36.706Z,77.78
2023-01-29T08:16:05.986Z,78.14
2023-01-29T08:18:34.435Z,77.66
2023-01-29T08:21:03.258Z,77.52
2023-01-29T08:23:32.117Z,77.16
2023-01-29T08:26:03.232Z,76.98
2023-01-29T08:28:31.762Z,77.38
2023-01-29T08:31:00.515Z,76.89
2023-01-29T08:33:38.632Z,77.98
2023-01-29T08:36:08.970Z,77.78
2023-01-29T08:38:37.584Z,77.82
2023-01-29T08:41:07.888Z,78.16
2023-01-29T08:43:36.913Z,78.31
2023-01-29T08:46:06.448Z,77.49
2023-01-29T08:48:35.396Z,77.08
2023-01-29T08:51:04.730Z,75.51
2023-01-29T08:53:33.851Z,75.86
2023-01-29T08:56:02.391Z,76.49
2023-01-29T08:58:32.312Z,76.75
2023-01-29T09:01:07.150Z,77.40
2023-01-29T09:03:36.095Z,77.28
2023-01-29T09:06:05.024Z,76.29
2023-01-29T09:08:33.677Z,75.83
2023-01-29T09:11:02.145Z,76.13
2023-01-29T09:13:31.982Z,75.56
2023-01-29T09:16:01.668Z,75.30
2023-01-29T09:18:30.894Z,75.50
2023-01-29T09:20:59.704Z,76.23
2023-01-29T09:23:28.140Z,74.73
2023-01-29T09:25:56.622Z,75.25
2023-01-29T09:28:25.247Z,74.69
2023-01-29T09:30:55.178Z,73.80
2023-01-29T09:33:24.679Z,74.35
2023-01-29T09:35:53.252Z,73.74
2023-01-29T09:38:21.922Z,73.34
2023-01-29T09:40:59.530Z,73.39
2023-01-29T09:43:41.439Z,73.61
2023-01-29T09:46:20.464Z,73.13
2023-01-29T09:48:56.311Z,74.43
2023-01-29T09:51:30.780Z,73.68
2023-01-29T09:54:18.335Z,72.81
2023-01-29T09:56:47.873Z,74.51
2023-01-29T09:59:19.314Z,73.56
2023-01-29T10:01:56.655Z,74.18
2023-01-29T10:04:44.436Z,73.36
2023-01-29T10:07:25.890Z,73.58
2023-01-29T10:10:12.380Z,73.71
2023-01-29T10:12:52.636Z,72.92
2023-01-29T10:15:32.114Z,73.30
2023-01-29T10:18:27.173Z,73.26
2023-01-29T10:21:06.853Z,72.34
2023-01-29T10:23:38.769Z,74.06
2023-01-29T10:26:11.863Z,73.84
2023-01-29T10:28:46.237Z,73.06
2023-01-29T10:31:18.971Z,71.13
2023-01-29T10:34:01.900Z,72.17
2023-01-29T10:36:37.568Z,72.06
2023-01-29T10:39:06.053Z,71.22
2023-01-29T10:41:50.601Z,70.39
2023-01-29T10:44:31.943Z,69.83
2023-01-29T10:47:13.136Z,70.78
2023-01-29T10:50:01.044Z,71.52
2023-01-29T10:52:43.448Z,69.15
2023-01-29T10:55:27.001Z,70.55
2023-01-29T10:58:08.347Z,71.54
2023-01-29T11:00:40.218Z,69.35
2023-01-29T11:03:26.799Z,69.14
2023-01-29T11:06:05.239Z,70.47
2023-01-29T11:08:41.175Z,68.87
2023-01-29T11:11:13.844Z,68.99
2023-01-29T11:13:46.554Z,69.20
2023-01-29T11:16:15.293Z,69.46
2023-01-29T11:18:52.801Z,67.78
2023-01-29T11:21:22.956Z,67.75
2023-01-29T11:23:52.027Z,68.39
2023-01-29T11:26:23.946Z,67.88
2023-01-29T11:28:52.801Z,68.60
2023-01-29T11:31:27.046Z,68.17
2023-01-29T11:34:06.401Z,68.86
2023-01-29T11:36:38.723Z,68.91
2023-01-29T11:39:15.905Z,68.61
2023-01-29T11:41:46.334Z,70.21
2023-01-29T11:44:29.822Z,69.27
2023-01-29T11:47:11.069Z,66.71
2023-01-29T11:49:42.452Z,69.00
2023-01-29T11:52:15.044Z,67.82
2023-01-29T11:54:48.207Z,67.78
2023-01-29T11:57:34.008Z,67.73
2023-01-29T12:00:06.501Z,68.70
2023-01-29T12:02:39.828Z,67.50
2023-01-29T12:05:16.998Z,67.68
2023-01-29T12:07:50.233Z,67.96
2023-01-29T12:10:34.117Z,68.28
2023-01-29T12:13:07.276Z,68.03
2023-01-29T12:15:36.407Z,69.92
2023-01-29T12:18:14.160Z,69.07
2023-01-29T12:20:46.886Z,67.53
2023-01-29T12:23:27.291Z,68.50
2023-01-29T12:26:01.621Z,70.33
2023-01-29T12:28:40.262Z,67.95
2023-01-29T12:31:19.049Z,67.30
2023-01-29T12:33:53.636Z,68.13
2023-01-29T12:36:26.855Z,69.81
2023-01-29T12:38:56.688Z,67.89
2023-01-29T12:41:31.992Z,68.17
2023-01-29T12:44:06.303Z,67.03
2023-01-29T12:46:40.492Z,66.87
2023-01-29T12:49:16.430Z,67.54
2023-01-29T12:51:55.762Z,65.42
2023-01-29T12:54:33.864Z,66.76
2023-01-29T12:57:05.277Z,66.51
2023-01-29T12:59:40.292Z,65.21
2023-01-29T13:02:19.696Z,65.85
2023-01-29T13:04:52.024Z,66.49
2023-01-29T13:07:25.818Z,65.67
2023-01-29T13:10:03.290Z,66.38
2023-01-29T13:12:32.616Z,66.43
2023-01-29T13:15:05.082Z,66.28
2023-01-29T13:17:37.528Z,66.33
2023-01-29T13:20:14.218Z,67.05
2023-01-29T13:22:44.915Z,66.78
2023-01-29T13:25:17.252Z,67.33
2023-01-29T13:27:47.934Z,68.72
2023-01-29T13:30:31.434Z,66.68
2023-01-29T13:33:10.292Z,66.54
2023-01-29T13:35:42.687Z,66.47
2023-01-29T13:38:24.666Z,66.05
2023-01-29T13:41:00.286Z,67.18
2023-01-29T13:43:32.911Z,67.04
2023-01-29T13:46:09.496Z,66.40
2023-01-29T13:48:43.293Z,66.80
2023-01-29T13:51:16.859Z,67.45
2023-01-29T13:53:55.433Z,67.15
2023-01-29T13:56:44.506Z,66.99
2023-01-29T13:59:25.074Z,68.07
2023-01-29T14:02:21.375Z,67.74
2023-01-29T14:04:51.046Z,68.67
2023-01-29T14:07:48.756Z,67.93
2023-01-29T14:10:19.199Z,67.29
2023-01-29T14:13:28.317Z,68.10
2023-01-29T14:16:29.407Z,67.49
2023-01-29T14:19:01.210Z,68.04
2023-01-29T14:21:31.982Z,68.50
2023-01-29T14:24:10.751Z,69.63
2023-01-29T14:26:45.617Z,69.52
2023-01-29T14:29:33.822Z,69.23
2023-01-29T14:32:14.981Z,70.16
2023-01-29T14:34:47.511Z,69.38
2023-01-29T14:37:33.212Z,71.46
2023-01-29T14:40:16.546Z,70.74
2023-01-29T14:42:55.168Z,70.79
2023-01-29T14:45:28.292Z,71.31
2023-01-29T14:48:37.620Z,69.83
2023-01-29T14:51:13.077Z,69.74
2023-01-29T14:53:49.636Z,69.99
2023-01-29T14:56:20.021Z,69.57
2023-01-29T14:58:50.942Z,70.32
2023-01-29T15:01:24.578Z,69.32
2023-01-29T15:04:00.381Z,70.15
2023-01-29T15:06:35.081Z,70.64
2023-01-29T15:09:15.367Z,69.96
2023-01-29T15:11:58.431Z,70.79
2023-01-29T15:14:33.733Z,69.49
2023-01-29T15:17:17.126Z,71.51
2023-01-29T15:19:48.036Z,70.76
2023-01-29T15:22:18.052Z,70.60
2023-01-29T15:24:48.401Z,70.97
2023-01-29T15:27:18.156Z,70.02
2023-01-29T15:29:54.595Z,70.92
2023-01-29T15:32:30.524Z,72.15
2023-01-29T15:35:00.376Z,77.26
2023-01-29T15:37:32.059Z,73.18
2023-01-29T15:40:02.256Z,73.18
2023-01-29T15:42:44.610Z,72.82
2023-01-29T15:45:23.330Z,72.21
2023-01-29T15:47:54.898Z,73.98
2023-01-29T15:50:24.564Z,73.29
2023-01-29T15:52:54.926Z,74.70
2023-01-29T15:55:24.975Z,74.84
2023-01-29T15:57:53.756Z,75.27
2023-01-29T16:00:27.193Z,75.37
2023-01-29T16:02:58.056Z,75.01
2023-01-29T16:05:29.239Z,75.70
2023-01-29T16:07:58.627Z,74.98
2023-01-29T16:10:29.421Z,75.92
2023-01-29T16:12:58.388Z,78.27
2023-01-29T16:15:33.482Z,74.66
2023-01-29T16:18:06.001Z,77.08
2023-01-29T16:20:41.338Z,76.16
2023-01-29T16:23:18.368Z,77.40
2023-01-29T16:25:47.040Z,76.50
2023-01-29T16:28:16.115Z,77.87
2023-01-29T16:30:45.523Z,78.55
2023-01-29T16:33:18.058Z,78.13
2023-01-29T16:35:52.760Z,79.12
2023-01-29T16:38:29.445Z,79.94
2023-01-29T16:41:32.479Z,80.55
2023-01-29T16:44:03.373Z,80.42
2023-01-29T16:46:36.949Z,80.04
2023-01-29T16:49:45.286Z,81.14
2023-01-29T16:52:24.337Z,80.90
2023-01-29T16:54:53.237Z,80.35
2023-01-29T16:57:25.621Z,80.53
2023-01-29T16:59:56.368Z,80.50
2023-01-29T17:02:27.917Z,81.75
2023-01-29T17:05:01.508Z,81.39
2023-01-29T17:07:31.591Z,81.11
2023-01-29T17:10:02.457Z,82.02
2023-01-29T17:12:33.101Z,82.20
2023-01-29T17:15:04.023Z,81.57
2023-01-29T17:17:34.263Z,82.34
2023-01-29T17:20:14.000Z,81.61
2023-01-29T17:22:42.693Z,82.10
2023-01-29T17:25:14.882Z,81.90
2023-01-29T17:27:45.321Z,82.42
2023-01-29T17:30:16.539Z,82.31
2023-01-29T17:32:47.336Z,82.26
2023-01-29T17:35:18.137Z,82.41
2023-01-29T17:37:46.880Z,82.79
2023-01-29T17:40:29.520Z,82.61
2023-01-29T17:42:58.045Z,82.36
2023-01-29T17:45:26.570Z,82.72
2023-01-29T17:47:55.135Z,82.55
2023-01-29T17:50:27.392Z,82.35
2023-01-29T17:52:55.885Z,82.76
2023-01-29T17:55:24.473Z,82.60
2023-01-29T17:57:53.073Z,82.50
2023-01-29T18:00:24.146Z,82.90
2023-01-29T18:02:52.661Z,82.08
2023-01-29T18:05:21.219Z,84.01
2023-01-29T18:07:54.670Z,83.71
2023-01-29T18:10:23.304Z,83.97
2023-01-29T18:12:51.782Z,84.56
2023-01-29T18:15:20.784Z,84.12
2023-01-29T18:17:52.140Z,84.64
2023-01-29T18:20:22.909Z,84.74
2023-01-29T18:22:53.026Z,84.43
2023-01-29T18:25:23.581Z,85.43
2023-01-29T18:27:53.192Z,84.77
2023-01-29T18:30:21.766Z,84.45
2023-01-29T18:32:50.784Z,84.47
2023-01-29T18:35:19.467Z,84.73
2023-01-29T18:37:48.059Z,84.83
2023-01-29T18:40:18.953Z,85.26
2023-01-29T18:42:48.027Z,85.18
2023-01-29T18:45:16.964Z,86.00
2023-01-29T18:47:45.940Z,86.88
2023-01-29T18:50:14.446Z,86.44
2023-01-29T18:52:44.722Z,86.26
2023-01-29T18:55:13.984Z,85.67
2023-01-29T18:58:33.466Z,86.15
2023-01-29T19:00:33.589Z,85.95
2023-01-29T19:03:02.582Z,86.51
2023-01-29T19:05:34.299Z,86.91
2023-01-29T19:08:02.816Z,86.26
2023-01-29T19:10:31.342Z,86.53
2023-01-29T19:13:01.690Z,87.53
2023-01-29T19:15:30.126Z,86.05
2023-01-29T19:17:58.874Z,86.83
2023-01-29T19:20:28.015Z,85.91
2023-01-29T19:22:56.474Z,87.84
2023-01-29T19:25:24.970Z,86.80
2023-01-29T19:27:53.453Z,87.69
2023-01-29T19:30:23.407Z,87.75
2023-01-29T19:32:51.941Z,87.07
2023-01-29T19:35:20.457Z,87.22
2023-01-29T19:37:48.918Z,86.88
2023-01-29T19:40:18.002Z,87.79
2023-01-29T19:42:46.541Z,87.04
2023-01-29T19:45:15.266Z,88.37
2023-01-29T19:47:45.450Z,88.16
2023-01-29T19:50:13.975Z,87.32
2023-01-29T19:52:51.530Z,87.71
2023-01-29T19:55:21.341Z,87.02
2023-01-29T19:57:52.969Z,87.03
2023-01-29T20:00:22.566Z,87.33
2023-01-29T20:02:52.431Z,89.11
2023-01-29T20:05:20.857Z,89.04
2023-01-29T20:07:50.013Z,86.78
2023-01-29T20:10:19.145Z,87.86
2023-01-29T20:12:48.045Z,89.28
2023-01-29T20:15:16.693Z,89.47
2023-01-29T20:17:45.945Z,88.33
2023-01-29T20:20:17.023Z,88.19
2023-01-29T20:22:47.879Z,88.33
2023-01-29T20:25:17.016Z,88.58
2023-01-29T20:27:45.715Z,88.06
2023-01-29T20:30:14.859Z,87.54
2023-01-29T20:32:43.404Z,89.48
2023-01-29T20:35:11.958Z,88.22
2023-01-29T20:37:41.762Z,89.28
2023-01-29T20:40:12.570Z,88.51
2023-01-29T20:42:41.001Z,89.17
2023-01-29T20:45:10.381Z,90.23
2023-01-29T20:47:38.938Z,89.02
2023-01-29T20:50:09.261Z,91.16
2023-01-29T20:52:38.682Z,90.22
2023-01-29T20:55:12.050Z,89.29
2023-01-29T20:57:41.128Z,89.36
2023-01-29T21:00:11.035Z,88.70
2023-01-29T21:02:39.614Z,88.14
2023-01-29T21:05:08.648Z,89.16
2023-01-29T21:07:37.158Z,88.40
2023-01-29T21:10:06.385Z,88.38
2023-01-29T21:12:36.674Z,87.64
2023-01-29T21:15:05.706Z,89.52
2023-01-29T21:17:34.270Z,88.07
2023-01-29T21:20:04.122Z,87.94
2023-01-29T21:22:33.275Z,88.06
2023-01-29T21:25:01.768Z,89.48
2023-01-29T21:27:30.195Z,88.69
2023-01-29T21:29:59.947Z,88.80
2023-01-29T21:32:28.938Z,90.09
2023-01-29T21:34:57.413Z,89.07
2023-01-29T21:37:25.961Z,89.77
2023-01-29T21:39:54.448Z,90.09
2023-01-29T21:42:40.263Z,89.53
2023-01-29T21:45:11.144Z,88.80
2023-01-29T21:47:39.666Z,88.98
2023-01-29T21:50:09.220Z,89.49
2023-01-29T21:52:38.132Z,89.17
2023-01-29T21:55:07.256Z,89.29
2023-01-29T21:57:36.010Z,90.02
2023-01-29T22:00:05.230Z,90.31
2023-01-29T22:02:35.144Z,89.13
2023-01-29T22:05:17.601Z,88.90
2023-01-29T22:07:46.441Z,90.46
2023-01-29T22:10:15.479Z,89.89
2023-01-29T22:12:44.825Z,88.78
2023-01-29T22:15:14.103Z,90.36
2023-01-29T22:17:43.890Z,89.38
2023-01-29T22:20:14.625Z,88.88
2023-01-29T22:22:43.166Z,90.25
2023-01-29T22:25:11.784Z,88.99
2023-01-29T22:27:40.202Z,89.06
2023-01-29T22:30:10.087Z,89.76
2023-01-29T22:32:38.639Z,89.98
2023-01-29T22:35:10.309Z,91.13
2023-01-29T22:37:38.809Z,89.68
2023-01-29T22:40:08.479Z,90.52
2023-01-29T22:42:36.915Z,90.89
2023-01-29T22:45:05.977Z,90.14
2023-01-29T22:47:34.829Z,90.13
2023-01-29T22:50:03.538Z,88.86
2023-01-29T22:52:38.497Z,90.09
2023-01-29T22:55:09.218Z,91.28
2023-01-29T22:57:38.388Z,89.56
2023-01-29T23:00:09.844Z,90.69
2023-01-29T23:02:38.559Z,89.33
2023-01-29T23:05:08.126Z,89.91
2023-01-29T23:07:37.895Z,88.70
2023-01-29T23:10:07.313Z,90.72
2023-01-29T23:12:35.820Z,89.45
2023-01-29T23:15:04.657Z,88.49
2023-01-29T23:17:33.592Z,89.61
2023-01-29T23:20:02.061Z,91.02
2023-01-29T23:22:30.652Z,91.08
2023-01-29T23:25:02.628Z,90.96
2023-01-29T23:27:30.147Z,91.33
2023-01-29T23:29:58.537Z,91.85
2023-01-29T23:32:26.963Z,91.51
2023-01-29T23:34:55.395Z,91.20
2023-01-29T23:37:23.918Z,91.41
2023-01-29T23:39:52.604Z,89.71
2023-01-29T23:42:22.439Z,91.47
2023-01-29T23:44:50.919Z,91.04
2023-01-29T23:47:19.322Z,89.48
2023-01-29T23:49:47.767Z,89.37
2023-01-29T23:52:16.185Z,90.92
2023-01-29T23:54:44.703Z,89.97
2023-01-29T23:57:13.077Z,89.45
2023-01-29T23:59:42.931Z,89.24
